Impacts METAR Board
IDs:

KPHL - Philadelphia Intl, PA, US

Updated at: 1600 UTC 20 Aug 2019
Potential Impact None Slight Moderate High
Time 20/04Z 20/05Z 20/06Z 20/07Z 20/08Z 20/09Z 20/10Z 20/11Z 20/12Z 20/13Z 20/14Z 20/15Z 20/16Z
Temp81 82 80 78 79 77 76 78 79 83 84 86 88
Dewpt73 73 73 75 71 69 72 72 69 68 68 69 70
Altim30.02 30.03 30.03 30.03 30.03 30.05 30.07 30.08 30.10 30.10 30.10 30.10 30.10
VIS10 10 10 10 10 10 10 10 10 10 10 10 10
CIG250 250 250 250 250 270 270 270 270 270 250 250 250
CoverBKNBKNBKNBKNBKNBKNBKNBKNBKNBKNBKNBKNBKN
FltCatVFRVFRVFRVFRVFRVFRVFRVFRVFRVFRVFRVFRVFR
WX--------------------------
WDir220000340180003606060800
WSpd3 0 0 0 3 3 0 0 6 5 6 5 5
WGst-- -- -- -- -- -- -- -- -- -- -- -- --
Raw hourly METARs
KPHL 200354Z 22003KT 10SM FEW060 BKN250 27/23 A3002 RMK AO2 SLP166 T02720228
KPHL 200454Z 00000KT 10SM SCT060 BKN250 28/23 A3003 RMK AO2 SLP167 T02780228 403390239
KPHL 200554Z 00000KT 10SM FEW060 BKN250 27/23 A3003 RMK AO2 SLP168 T02670228 10289 20261 53001
KPHL 200654Z 00000KT 10SM BKN250 26/24 A3003 RMK AO2 SLP167 T02560239
KPHL 200754Z 34003KT 10SM BKN250 26/22 A3003 RMK AO2 SLP168 T02610217
KPHL 200854Z 18003KT 10SM BKN270 25/21 A3005 RMK AO2 SLP174 T02500206 53006
KPHL 200954Z 00000KT 10SM BKN270 24/22 A3007 RMK AO2 SLP181 T02440222
KPHL 201054Z 00000KT 10SM BKN270 26/22 A3008 RMK AO2 SLP186 T02560222
KPHL 201154Z 36006KT 10SM BKN270 26/21 A3010 RMK AO2 SLP191 70003 T02610206 10267 20244 51018
KPHL 201254Z 06005KT 10SM BKN270 28/20 A3010 RMK AO2 SLP192 T02830200
KPHL 201354Z 06006KT 10SM BKN250 29/20 A3010 RMK AO2 SLP193 T02890200
KPHL 201454Z 08005KT 10SM BKN250 30/21 A3010 RMK AO2 SLP192 T03000206 50001
KPHL 201554Z VRB05KT 10SM FEW070 BKN250 31/21 A3010 RMK AO2 SLP191 T03110211



Page loaded:  16:51 UTC  |   09:51 AM Pacific  |   10:51 AM Mountain  |   11:51 AM Central  |   12:51 PM Eastern

 

ADVISORIES

FORECASTS

FORECASTS

OBSERVATIONS

USER TOOLS

ABOUT US